createdAt,value
2022-09-20T00:00:48.649Z,0.40
2022-09-20T00:03:16.569Z,0.30
2022-09-20T00:05:45.623Z,0.28
2022-09-20T00:08:14.894Z,0.20
2022-09-20T00:10:42.873Z,0.40
2022-09-20T00:13:11.787Z,0.30
2022-09-20T00:15:46.121Z,0.40
2022-09-20T00:18:13.480Z,0.30
2022-09-20T00:23:13.886Z,0.20
2022-09-20T00:25:40.768Z,0.20
2022-09-20T00:28:08.364Z,0.22
2022-09-20T00:30:35.381Z,0.10
2022-09-20T00:33:02.238Z,0.30
2022-09-20T00:35:29.928Z,0.40
2022-09-20T00:37:56.928Z,0.40
2022-09-20T00:40:26.998Z,0.50
2022-09-20T00:42:53.980Z,0.30
2022-09-20T00:45:28.476Z,0.40
2022-09-20T00:48:06.520Z,1.00
2022-09-20T00:50:51.232Z,1.13
2022-09-20T00:53:26.136Z,1.20
2022-09-20T00:56:06.869Z,0.47
2022-09-20T00:58:40.125Z,0.98
2022-09-20T01:01:07.285Z,0.30
2022-09-20T01:03:36.365Z,0.40
2022-09-20T01:06:06.972Z,0.30
2022-09-20T01:08:35.272Z,0.77
2022-09-20T01:11:02.565Z,1.20
2022-09-20T01:16:00.096Z,0.70
2022-09-20T01:18:29.815Z,0.40
2022-09-20T01:20:57.599Z,0.20
2022-09-20T01:23:43.095Z,0.50
2022-09-20T01:26:38.872Z,0.43
2022-09-20T01:29:17.240Z,0.50
2022-09-20T01:31:53.349Z,0.50
2022-09-20T01:34:28.674Z,0.60
2022-09-20T01:37:04.698Z,0.90
2022-09-20T01:39:41.718Z,0.52
2022-09-20T01:42:11.448Z,0.57
2022-09-20T01:44:55.330Z,0.50
2022-09-20T01:47:50.172Z,0.35
2022-09-20T01:50:25.716Z,0.40
2022-09-20T01:53:29.504Z,0.50
2022-09-20T01:56:19.508Z,0.50
2022-09-20T01:59:47.406Z,0.40
2022-09-20T02:02:22.669Z,0.30
2022-09-20T02:05:04.731Z,0.22
2022-09-20T02:07:46.249Z,0.35
2022-09-20T02:10:46.978Z,0.45
2022-09-20T02:13:49.401Z,0.40
2022-09-20T02:16:50.404Z,0.50
2022-09-20T02:19:38.101Z,0.45
2022-09-20T02:22:19.695Z,0.40
2022-09-20T02:25:15.677Z,0.47
2022-09-20T02:28:21.367Z,0.40
2022-09-20T02:31:02.086Z,0.50
2022-09-20T02:33:46.829Z,0.70
2022-09-20T02:36:34.982Z,0.55
2022-09-20T02:39:17.626Z,0.80
2022-09-20T02:41:59.193Z,1.30
2022-09-20T02:44:33.616Z,1.50
2022-09-20T02:47:16.163Z,1.20
2022-09-20T02:50:19.999Z,1.20
2022-09-20T02:53:12.778Z,1.17
2022-09-20T02:56:08.863Z,1.10
2022-09-20T02:58:54.628Z,1.17
2022-09-20T03:01:52.056Z,1.30
2022-09-20T03:04:49.399Z,1.40
2022-09-20T03:07:42.732Z,1.00
2022-09-20T03:10:47.568Z,1.20
2022-09-20T03:13:35.832Z,1.33
2022-09-20T03:16:15.979Z,1.52
2022-09-20T03:19:04.050Z,2.40
2022-09-20T03:21:54.396Z,1.70
2022-09-20T03:24:43.835Z,1.80
2022-09-20T03:27:13.685Z,2.30
2022-09-20T03:30:16.023Z,2.55
2022-09-20T03:33:10.933Z,2.38
2022-09-20T03:36:04.219Z,1.80
2022-09-20T03:39:07.007Z,2.10
2022-09-20T03:42:04.491Z,1.70
2022-09-20T03:45:23.340Z,1.52
2022-09-20T03:48:18.887Z,1.00
2022-09-20T03:50:48.147Z,0.70
2022-09-20T03:53:40.394Z,0.70
2022-09-20T03:56:26.010Z,0.95
2022-09-20T03:59:01.673Z,1.50
2022-09-20T04:01:45.141Z,1.48
2022-09-20T04:04:36.487Z,1.35
2022-09-20T04:07:29.060Z,1.80
2022-09-20T04:09:59.489Z,2.03
2022-09-20T04:12:42.337Z,1.73
2022-09-20T04:15:40.189Z,1.98
2022-09-20T04:18:35.444Z,1.90
2022-09-20T04:21:05.181Z,2.00
2022-09-20T04:23:49.764Z,1.58
2022-09-20T04:26:24.506Z,1.83
2022-09-20T04:29:18.847Z,1.40
2022-09-20T04:32:21.720Z,1.10
2022-09-20T04:35:37.085Z,1.85
2022-09-20T04:38:07.861Z,1.50
2022-09-20T04:41:00.004Z,1.40
2022-09-20T04:44:04.865Z,1.48
2022-09-20T04:46:52.733Z,1.70
2022-09-20T04:49:40.014Z,1.98
2022-09-20T04:52:19.914Z,1.30
2022-09-20T04:55:15.951Z,1.80
2022-09-20T04:58:07.227Z,1.58
2022-09-20T05:01:07.578Z,1.60
2022-09-20T05:04:23.234Z,2.90
2022-09-20T05:07:27.611Z,1.58
2022-09-20T05:10:16.030Z,1.63
2022-09-20T05:13:05.228Z,1.67
2022-09-20T05:16:00.822Z,1.73
2022-09-20T05:19:24.054Z,1.35
2022-09-20T05:22:19.117Z,1.48
2022-09-20T05:25:10.065Z,1.50
2022-09-20T05:28:28.015Z,1.40
2022-09-20T05:31:03.060Z,1.17
2022-09-20T05:33:35.071Z,1.40
2022-09-20T05:36:10.882Z,1.42
2022-09-20T05:38:47.517Z,1.63
2022-09-20T05:41:37.326Z,1.50
2022-09-20T05:44:24.090Z,1.23
2022-09-20T05:47:21.364Z,1.27
2022-09-20T05:50:19.084Z,1.50
2022-09-20T05:53:02.537Z,1.85
2022-09-20T05:55:54.113Z,1.90
2022-09-20T05:58:31.785Z,2.22
2022-09-20T06:01:33.962Z,1.50
2022-09-20T06:04:20.196Z,1.90
2022-09-20T06:07:05.672Z,2.95
2022-09-20T06:09:45.690Z,2.28
2022-09-20T06:12:53.622Z,2.00
2022-09-20T06:15:25.592Z,2.10
2022-09-20T06:18:10.995Z,1.70
2022-09-20T06:20:56.276Z,1.73
2022-09-20T06:23:23.381Z,1.88
2022-09-20T06:26:55.942Z,1.55
2022-09-20T06:29:30.416Z,1.73
2022-09-20T06:31:57.184Z,1.52
2022-09-20T06:34:25.599Z,2.40
2022-09-20T06:37:19.091Z,1.95
2022-09-20T06:40:24.485Z,1.90
2022-09-20T06:42:51.372Z,1.65
2022-09-20T06:45:18.008Z,2.28
2022-09-20T06:47:44.649Z,2.53
2022-09-20T06:50:18.259Z,2.00
2022-09-20T06:52:46.533Z,2.15
2022-09-20T06:55:28.980Z,1.70
2022-09-20T06:57:56.188Z,1.88
2022-09-20T07:00:23.175Z,1.95
2022-09-20T07:02:49.862Z,2.30
2022-09-20T07:05:17.812Z,2.10
2022-09-20T07:07:44.909Z,1.77
2022-09-20T07:10:12.229Z,1.73
2022-09-20T07:12:39.129Z,1.60
2022-09-20T07:15:06.405Z,1.50
2022-09-20T07:17:33.784Z,3.92
2022-09-20T07:20:00.967Z,1.40
2022-09-20T07:22:28.043Z,1.55
2022-09-20T07:24:55.162Z,1.27
2022-09-20T07:27:21.905Z,1.60
2022-09-20T07:29:48.605Z,1.50
2022-09-20T07:32:15.963Z,1.58
2022-09-20T07:37:09.214Z,1.38
2022-09-20T07:39:35.854Z,1.50
2022-09-20T07:42:06.155Z,1.58
2022-09-20T07:44:32.873Z,1.60
2022-09-20T07:47:00.897Z,1.98
2022-09-20T07:49:31.936Z,1.40
2022-09-20T07:51:59.149Z,1.88
2022-09-20T07:54:27.549Z,1.63
2022-09-20T07:56:54.469Z,2.30
2022-09-20T07:59:21.290Z,2.45
2022-09-20T08:01:48.228Z,1.70
2022-09-20T08:04:14.966Z,2.10
2022-09-20T08:06:43.785Z,2.20
2022-09-20T08:09:11.916Z,2.28
2022-09-20T08:11:40.020Z,1.50
2022-09-20T08:14:08.816Z,1.42
2022-09-20T08:16:42.535Z,1.80
2022-09-20T08:19:13.734Z,1.50
2022-09-20T08:21:41.016Z,2.03
2022-09-20T08:24:07.675Z,2.08
2022-09-20T08:26:37.416Z,2.58
2022-09-20T08:29:07.985Z,2.33
2022-09-20T08:31:37.875Z,2.45
2022-09-20T08:34:06.772Z,2.45
2022-09-20T08:36:36.637Z,1.63
2022-09-20T08:42:08.892Z,2.30
2022-09-20T08:44:47.202Z,1.77
2022-09-20T08:47:43.083Z,4.18
2022-09-20T08:50:17.739Z,4.88
2022-09-20T08:52:48.423Z,2.67
2022-09-20T08:55:20.060Z,2.30
2022-09-20T08:57:54.089Z,1.80
2022-09-20T09:00:25.274Z,1.63
2022-09-20T09:02:57.020Z,2.17
2022-09-20T09:05:35.297Z,1.98
2022-09-20T09:08:16.283Z,2.00
2022-09-20T09:10:47.544Z,1.63
2022-09-20T09:13:53.742Z,1.60
2022-09-20T09:16:30.174Z,1.48
2022-09-20T09:19:26.596Z,1.77
2022-09-20T09:22:02.005Z,1.70
2022-09-20T09:24:31.081Z,1.80
2022-09-20T09:27:17.510Z,1.35
2022-09-20T09:29:53.403Z,1.80
2022-09-20T09:32:28.395Z,1.70
2022-09-20T09:34:56.085Z,1.77
2022-09-20T09:37:28.312Z,1.70
2022-09-20T09:40:18.070Z,1.50
2022-09-20T09:42:56.954Z,1.50
2022-09-20T09:45:36.081Z,1.55
2022-09-20T09:48:04.917Z,1.52
2022-09-20T09:50:33.912Z,1.90
2022-09-20T09:53:13.294Z,1.70
2022-09-20T09:56:14.162Z,1.73
2022-09-20T09:58:59.307Z,1.70
2022-09-20T10:01:39.490Z,1.75
2022-09-20T10:04:28.496Z,2.25
2022-09-20T10:07:08.193Z,2.42
2022-09-20T10:09:58.888Z,1.50
2022-09-20T10:12:50.281Z,1.20
2022-09-20T10:15:40.303Z,1.60
2022-09-20T10:18:44.692Z,1.50
2022-09-20T10:21:11.625Z,1.92
2022-09-20T10:24:04.444Z,1.15
2022-09-20T10:27:02.268Z,1.73
2022-09-20T10:29:47.651Z,2.47
2022-09-20T10:32:36.265Z,2.05
2022-09-20T10:38:01.882Z,2.58
2022-09-20T10:40:55.194Z,1.75
2022-09-20T10:43:31.862Z,1.90
2022-09-20T10:46:31.963Z,1.38
2022-09-20T10:49:13.558Z,1.55
2022-09-20T10:51:53.049Z,1.90
2022-09-20T10:54:52.832Z,1.15
2022-09-20T10:58:01.527Z,1.17
2022-09-20T11:00:53.367Z,0.70
2022-09-20T11:03:25.937Z,1.00
2022-09-20T11:06:13.473Z,1.10
2022-09-20T11:08:42.960Z,0.88
2022-09-20T11:11:32.505Z,1.05
2022-09-20T11:14:07.641Z,1.00
2022-09-20T11:17:00.323Z,1.00
2022-09-20T11:19:37.081Z,1.10
2022-09-20T11:22:21.109Z,1.20
2022-09-20T11:24:52.713Z,1.58
2022-09-20T11:27:32.036Z,1.27
2022-09-20T11:30:03.969Z,1.77
2022-09-20T11:32:53.094Z,2.17
2022-09-20T11:35:29.231Z,3.10
2022-09-20T11:38:11.129Z,3.53
2022-09-20T11:40:50.152Z,3.10
2022-09-20T11:43:18.292Z,2.72
2022-09-20T11:45:47.766Z,3.25
2022-09-20T11:48:30.184Z,2.22
2022-09-20T11:51:15.182Z,2.00
2022-09-20T11:54:16.083Z,3.50
2022-09-20T11:56:51.098Z,2.50
2022-09-20T11:59:33.904Z,1.83
2022-09-20T12:02:03.333Z,0.82
2022-09-20T12:04:35.639Z,1.02
2022-09-20T12:07:23.295Z,1.52
2022-09-20T12:10:02.799Z,1.20
2022-09-20T12:12:47.963Z,1.00
2022-09-20T12:15:34.407Z,0.90
2022-09-20T12:18:09.405Z,5.55
2022-09-20T12:20:38.532Z,2.58
2022-09-20T12:23:42.500Z,2.25
2022-09-20T12:29:35.016Z,2.70
2022-09-20T12:32:22.624Z,1.88
2022-09-20T12:34:49.292Z,1.67
2022-09-20T12:37:21.468Z,2.35
2022-09-20T12:39:55.564Z,2.90
2022-09-20T12:42:30.233Z,2.30
2022-09-20T12:45:17.462Z,3.35
2022-09-20T12:47:54.689Z,4.72
2022-09-20T12:50:41.337Z,4.57
2022-09-20T12:53:14.577Z,2.85
2022-09-20T12:55:42.373Z,2.95
2022-09-20T12:58:13.359Z,5.05
2022-09-20T13:01:14.314Z,4.22
2022-09-20T13:03:49.391Z,3.90
2022-09-20T13:06:17.384Z,3.20
2022-09-20T13:08:50.094Z,2.00
2022-09-20T13:11:36.084Z,2.33
2022-09-20T13:14:09.228Z,2.90
2022-09-20T13:16:56.328Z,1.67
2022-09-20T13:19:38.020Z,1.85
2022-09-20T13:22:43.434Z,2.20
2022-09-20T13:25:18.105Z,2.17
2022-09-20T13:27:53.947Z,2.10
2022-09-20T13:30:22.204Z,2.20
2022-09-20T13:32:50.481Z,3.08
2022-09-20T13:35:31.722Z,2.40
2022-09-20T13:38:05.626Z,2.08
2022-09-20T13:40:43.826Z,2.67
2022-09-20T13:43:33.366Z,2.50
2022-09-20T13:46:12.720Z,1.98
2022-09-20T13:48:40.219Z,1.92
2022-09-20T13:51:24.891Z,1.88
2022-09-20T13:53:51.785Z,1.30
2022-09-20T13:56:25.802Z,1.60
2022-09-20T13:58:52.816Z,4.40
2022-09-20T14:01:30.356Z,2.95
2022-09-20T14:04:17.586Z,2.40
2022-09-20T14:06:45.565Z,1.77
2022-09-20T14:09:30.432Z,3.20
2022-09-20T14:11:59.041Z,2.20
2022-09-20T14:14:27.547Z,2.15
2022-09-20T14:16:57.864Z,2.88
2022-09-20T14:19:33.332Z,3.15
2022-09-20T14:22:04.620Z,2.03
2022-09-20T14:24:35.641Z,2.10
2022-09-20T14:27:13.573Z,2.35
2022-09-20T14:29:48.825Z,6.18
2022-09-20T14:32:18.469Z,3.00
2022-09-20T14:35:05.182Z,1.92
2022-09-20T14:37:33.509Z,1.30
2022-09-20T14:40:15.993Z,1.90
2022-09-20T14:42:45.766Z,2.03
2022-09-20T14:45:32.830Z,2.80
2022-09-20T14:48:11.396Z,2.17
2022-09-20T14:50:44.530Z,1.88
2022-09-20T14:53:11.194Z,2.42
2022-09-20T14:56:05.994Z,1.63
2022-09-20T14:58:34.014Z,1.73
2022-09-20T15:01:23.471Z,1.90
2022-09-20T15:03:50.987Z,1.83
2022-09-20T15:06:18.647Z,2.30
2022-09-20T15:08:46.779Z,2.40
2022-09-20T15:11:20.402Z,1.30
2022-09-20T15:13:47.201Z,1.38
2022-09-20T15:16:17.557Z,1.92
2022-09-20T15:18:44.795Z,2.10
2022-09-20T15:21:12.111Z,1.48
2022-09-20T15:23:40.157Z,1.60
2022-09-20T15:26:09.544Z,1.67
2022-09-20T15:28:36.223Z,1.70
2022-09-20T15:31:02.930Z,1.50
2022-09-20T15:33:32.061Z,0.82
2022-09-20T15:36:00.941Z,1.40
2022-09-20T15:38:27.806Z,1.67
2022-09-20T15:40:54.805Z,2.10
2022-09-20T15:43:27.068Z,1.88
2022-09-20T15:46:16.056Z,1.83
2022-09-20T15:48:43.219Z,1.75
2022-09-20T15:51:11.490Z,2.00
2022-09-20T15:53:40.767Z,1.90
2022-09-20T15:56:22.143Z,1.17
2022-09-20T15:58:51.105Z,1.40
2022-09-20T16:01:19.274Z,1.40
2022-09-20T16:03:46.654Z,1.40
2022-09-20T16:08:42.131Z,1.60
2022-09-20T16:11:13.957Z,1.67
2022-09-20T16:13:40.694Z,2.10
2022-09-20T16:16:10.153Z,1.52
2022-09-20T16:18:55.547Z,1.10
2022-09-20T16:21:22.873Z,0.90
2022-09-20T16:26:19.602Z,1.70
2022-09-20T16:28:47.639Z,2.65
2022-09-20T16:31:41.013Z,3.60
2022-09-20T16:34:28.318Z,3.65
2022-09-20T16:36:58.517Z,2.80
2022-09-20T16:39:27.708Z,3.60
2022-09-20T16:41:57.218Z,4.53
2022-09-20T16:44:24.587Z,6.28
2022-09-20T16:49:17.984Z,3.72
2022-09-20T16:51:46.403Z,4.65
2022-09-20T16:54:16.952Z,5.32
2022-09-20T16:56:48.701Z,5.95
2022-09-20T16:59:17.691Z,6.95
2022-09-20T17:01:45.098Z,10.57
2022-09-20T17:06:43.338Z,5.97
2022-09-20T17:09:11.042Z,6.20
2022-09-20T17:11:40.561Z,4.32
2022-09-20T17:14:07.962Z,5.60
2022-09-20T17:19:08.710Z,6.47
2022-09-20T17:21:38.594Z,5.45
2022-09-20T17:24:07.110Z,5.80
2022-09-20T17:26:40.030Z,7.25
2022-09-20T17:29:09.859Z,7.18
2022-09-20T17:31:39.186Z,6.45
2022-09-20T17:34:09.455Z,6.15
2022-09-20T17:36:39.641Z,5.45
2022-09-20T17:39:09.984Z,6.30
2022-09-20T17:41:37.353Z,5.05
2022-09-20T17:46:41.109Z,3.35
2022-09-20T17:49:10.631Z,3.25
2022-09-20T17:51:40.321Z,3.67
2022-09-20T17:54:07.609Z,2.72
2022-09-20T17:59:04.495Z,2.70
2022-09-20T18:01:33.286Z,3.60
2022-09-20T18:04:01.617Z,4.20
2022-09-20T18:06:31.044Z,4.18
2022-09-20T18:09:03.226Z,4.03
2022-09-20T18:11:39.224Z,4.00
2022-09-20T18:14:08.107Z,3.78
2022-09-20T18:16:35.322Z,2.90
2022-09-20T18:19:03.034Z,2.28
2022-09-20T18:21:31.954Z,3.25
2022-09-20T18:23:59.017Z,3.35
2022-09-20T18:26:27.958Z,4.97
2022-09-20T18:29:16.647Z,10.35
2022-09-20T18:31:50.547Z,4.20
2022-09-20T18:34:22.483Z,3.15
2022-09-20T18:36:57.224Z,2.20
2022-09-20T18:39:28.277Z,2.20
2022-09-20T18:41:55.549Z,2.20
2022-09-20T18:44:23.160Z,2.05
2022-09-20T18:46:55.046Z,2.67
2022-09-20T18:49:22.550Z,2.67
2022-09-20T18:51:49.883Z,3.40
2022-09-20T18:54:17.473Z,5.82
2022-09-20T18:56:46.485Z,6.10
2022-09-20T18:59:15.738Z,4.07
2022-09-20T19:01:53.276Z,3.90
2022-09-20T19:04:47.210Z,2.42
2022-09-20T19:07:27.228Z,2.03
2022-09-20T19:10:08.670Z,2.35
2022-09-20T19:12:35.314Z,2.70
2022-09-20T19:15:43.442Z,2.38
2022-09-20T19:18:23.688Z,2.47
2022-09-20T19:21:05.895Z,3.60
2022-09-20T19:24:10.241Z,5.85
2022-09-20T19:26:38.555Z,4.15
2022-09-20T19:29:19.537Z,3.33
2022-09-20T19:31:51.420Z,2.70
2022-09-20T19:34:21.471Z,2.60
2022-09-20T19:37:18.324Z,2.70
2022-09-20T19:40:00.102Z,2.50
2022-09-20T19:42:35.997Z,2.35
2022-09-20T19:45:31.222Z,2.97
2022-09-20T19:48:32.423Z,2.67
2022-09-20T19:51:03.992Z,3.50
2022-09-20T19:53:31.098Z,3.28
2022-09-20T19:56:04.329Z,2.97
2022-09-20T19:58:31.297Z,3.17
2022-09-20T20:00:58.355Z,2.78
2022-09-20T20:03:27.459Z,2.53
2022-09-20T20:06:11.311Z,2.70
2022-09-20T20:08:50.445Z,3.20
2022-09-20T20:11:31.225Z,2.67
2022-09-20T20:14:16.096Z,2.72
2022-09-20T20:17:04.774Z,4.20
2022-09-20T20:22:20.024Z,4.45
2022-09-20T20:24:53.985Z,3.55
2022-09-20T20:27:20.972Z,3.30
2022-09-20T20:29:47.925Z,3.70
2022-09-20T20:32:15.136Z,3.63
2022-09-20T20:34:42.096Z,2.95
2022-09-20T20:37:08.857Z,2.58
2022-09-20T20:39:35.621Z,2.75
2022-09-20T20:42:03.657Z,2.30
2022-09-20T20:44:31.721Z,2.50
2022-09-20T20:46:58.604Z,2.60
2022-09-20T20:49:25.240Z,2.67
2022-09-20T20:51:51.965Z,3.03
2022-09-20T20:54:18.611Z,2.33
2022-09-20T20:56:45.253Z,3.07
2022-09-20T20:59:11.979Z,2.30
2022-09-20T21:01:45.631Z,2.35
2022-09-20T21:04:13.280Z,2.55
2022-09-20T21:06:41.430Z,2.78
2022-09-20T21:09:09.892Z,2.35
2022-09-20T21:11:38.984Z,2.42
2022-09-20T21:14:07.360Z,2.90
2022-09-20T21:16:37.236Z,2.40
2022-09-20T21:19:05.912Z,3.10
2022-09-20T21:21:38.704Z,2.60
2022-09-20T21:24:07.630Z,2.25
2022-09-20T21:26:36.046Z,2.03
2022-09-20T21:29:08.395Z,2.17
2022-09-20T21:31:37.854Z,2.55
2022-09-20T21:34:09.202Z,3.05
2022-09-20T21:36:37.145Z,2.92
2022-09-20T21:39:05.048Z,2.58
2022-09-20T21:41:34.097Z,2.22
2022-09-20T21:44:03.548Z,3.00
2022-09-20T21:46:33.171Z,3.30
2022-09-20T21:49:01.593Z,3.00
2022-09-20T21:51:29.838Z,3.50
2022-09-20T21:53:58.040Z,3.45
2022-09-20T21:56:27.488Z,3.17
2022-09-20T21:58:54.962Z,3.60
2022-09-20T22:01:23.678Z,3.10
2022-09-20T22:03:52.906Z,2.53
2022-09-20T22:06:22.129Z,2.45
2022-09-20T22:08:51.966Z,2.55
2022-09-20T22:11:20.648Z,3.10
2022-09-20T22:13:50.535Z,2.72
2022-09-20T22:16:21.762Z,2.25
2022-09-20T22:18:49.000Z,2.70
2022-09-20T22:21:21.801Z,2.47
2022-09-20T22:23:54.160Z,2.00
2022-09-20T22:26:22.130Z,2.10
2022-09-20T22:28:49.865Z,1.63
2022-09-20T22:31:20.684Z,2.30
2022-09-20T22:33:50.400Z,2.38
2022-09-20T22:36:19.869Z,2.15
2022-09-20T22:38:46.998Z,2.22
2022-09-20T22:41:16.044Z,2.03
2022-09-20T22:43:43.307Z,2.25
2022-09-20T22:46:15.833Z,1.88
2022-09-20T22:48:43.401Z,2.35
2022-09-20T22:51:12.744Z,2.50
2022-09-20T22:53:40.187Z,2.35
2022-09-20T22:58:40.853Z,2.08
2022-09-20T23:01:09.410Z,1.90
2022-09-20T23:03:37.118Z,2.45
2022-09-20T23:06:04.511Z,1.92
2022-09-20T23:11:03.334Z,2.22
2022-09-20T23:13:30.196Z,1.80
2022-09-20T23:15:56.884Z,2.08
2022-09-20T23:18:23.729Z,2.38
2022-09-20T23:21:08.687Z,1.90
2022-09-20T23:23:36.456Z,1.90
2022-09-20T23:26:07.322Z,2.08
2022-09-20T23:28:38.887Z,2.00
2022-09-20T23:31:08.272Z,1.95
2022-09-20T23:33:35.333Z,2.10
2022-09-20T23:36:09.674Z,2.30
2022-09-20T23:38:36.875Z,1.80
2022-09-20T23:41:08.524Z,1.95
2022-09-20T23:43:36.377Z,2.10
2022-09-20T23:46:04.376Z,1.95
2022-09-20T23:48:31.717Z,1.85
2022-09-20T23:53:25.209Z,2.22
2022-09-20T23:55:51.888Z,2.70
2022-09-20T23:58:18.554Z,2.28
